Latest Weather Observations for Halls Creek

IDW60801

Issued at 10:33 pm WST Monday 29 November 2021 (issued every 10 minutes, with the page automatically refreshed every 10 minutes)

About weather observations | Map of weather stations | Latest weather observations for WA | Other Formats
Station Details ID: 002079 Name: HALLS CREEK AIRPORT Lat: -18.23 Lon: 127.67 Height: 409.4 m
Data from the previous 72 hours. | See also: Recent months at Halls Creek
Date/Time
WST
Temp
°C
App
Temp
°C
Dew
Point
°C
Rel
Hum
%
Delta-T
°C
Wind Press
QNH
hPa
Press
MSL
hPa
Rain since
9am
mm
Dir  Spd
km/h
Gust
km/h
Spd
kts
Gust
kts
29/10:30pm 26.5 23.4 5.5 26 11.0 NE 11 13 6 7 1010.3 1006.9 0.0
29/10:00pm 25.7 24.5 4.8 26 10.8 CALM 0 0 0 0 1010.3 1006.9 0.0
29/09:30pm 25.7 24.6 5.3 27 10.6 CALM 0 0 0 0 1010.3 1006.9 0.0
29/09:00pm 26.3 25.1 4.7 25 11.2 CALM 0 0 0 0 1010.4 1007.0 0.0
29/08:30pm 26.9 25.6 4.0 23 11.7 CALM 0 0 0 0 1010.1 1006.7 0.0
29/08:00pm 29.3 27.9 3.3 19 13.4 CALM 0 0 0 0 1009.6 1006.3 0.0
29/07:30pm 30.9 28.1 3.0 17 14.4 NNE 7 9 4 5 1009.4 1006.1 0.0
29/07:00pm 32.8 29.6 2.8 15 15.6 NNE 9 11 5 6 1009.1 1005.7 0.0
29/06:30pm 33.9 30.6 2.7 14 16.3 NNE 9 13 5 7 1008.7 1005.3 0.0
29/06:00pm 34.8 31.1 2.3 13 17.0 NNE 11 15 6 8 1008.3 1004.9 0.0
29/05:30pm 36.3 33.2 1.2 11 18.1 NNE 7 9 4 5 1007.9 1004.5 0.0
29/05:00pm 37.1 33.5 0.4 10 18.9 ENE 9 15 5 8 1007.6 1004.2 0.0
29/04:30pm 37.7 33.4 0.9 10 19.1 ESE 13 20 7 11 1007.5 1004.1 0.0
29/04:00pm 37.8 34.8 1.0 10 19.2 NE 6 15 3 8 1007.2 1003.9 0.0
29/03:30pm 37.4 34.2 0.7 10 18.9 NNE 7 13 4 7 1007.4 1004.0 0.0
29/03:00pm 37.8 33.1 1.0 10 19.2 ESE 15 20 8 11 1007.5 1004.1 0.0
29/02:30pm 38.1 32.7 1.2 10 19.3 SE 19 26 10 14 1007.6 1004.2 0.0
29/02:00pm 38.2 33.2 1.3 10 19.3 SE 17 28 9 15 1007.8 1004.4 0.0
29/01:30pm 37.7 33.4 0.9 10 19.1 S 13 22 7 12 1008.2 1004.8 0.0
29/01:00pm 37.9 34.0 1.0 10 19.2 SSE 11 22 6 12 1008.7 1005.3 0.0
29/12:30pm 37.5 34.1 2.1 11 18.7 E 9 13 5 7 1009.1 1005.7 0.0
29/12:00pm 36.6 33.3 2.6 12 18.0 NW 9 19 5 10 1009.5 1006.2 0.0
29/11:30am 36.8 34.1 3.9 13 17.8 NNW 7 15 4 8 1010.1 1006.7 0.0
29/11:00am 35.9 33.3 4.2 14 17.1 WSW 7 17 4 9 1010.7 1007.3 0.0
29/10:30am 35.1 31.0 4.6 15 16.5 NNE 15 24 8 13 1011.1 1007.7 0.0
29/10:00am 36.5 32.5 4.7 14 17.4 NE 15 26 8 14 1011.5 1008.2 0.0
29/09:30am 35.5 31.1 4.9 15 16.7 NNE 17 26 9 14 1011.9 1008.6 0.0
29/09:00am 34.8 30.5 5.3 16 16.1 NNE 17 24 9 13 1012.2 1008.9 0.0
29/08:30am 33.9 29.3 5.4 17 15.5 NE 19 26 10 14 1012.6 1009.2 0.0
29/08:00am 33.5 29.9 5.1 17 15.4 NE 13 22 7 12 1012.7 1009.3 0.0
29/07:30am 32.5 29.1 5.9 19 14.5 NE 13 17 7 9 1012.7 1009.3 0.0
29/07:00am 30.8 27.3 5.3 20 13.7 NE 13 19 7 10 1012.6 1009.2 0.0
29/06:30am 28.7 27.4 6.1 24 12.1 NE 2 6 1 3 1012.6 1009.2 0.0
29/06:00am 27.1 25.0 6.0 26 11.2 ESE 6 7 3 4 1012.4 1009.1 0.0
29/05:30am 24.4 23.6 6.6 32 9.4 CALM 0 0 0 0 1012.1 1008.8 0.0
29/05:00am 23.3 19.9 6.1 33 8.9 NNW 13 20 7 11 1011.7 1008.4 0.0
29/04:30am 20.9 20.0 6.1 38 7.6 CALM 0 0 0 0 1010.9 1007.5 0.0
29/04:00am 21.6 20.7 5.9 36 8.1 CALM 0 0 0 0 1010.7 1007.3 0.0
29/03:30am 22.8 21.0 5.3 32 8.9 ENE 4 7 2 4 1010.0 1006.6 0.0
29/03:00am 23.3 21.1 6.1 33 9.0 E 7 9 4 5 1009.6 1006.3 0.0
29/02:30am 23.2 21.2 6.1 33 8.9 E 6 9 3 5 1009.5 1006.2 0.0
29/02:00am 22.0 20.8 6.3 36 8.1 SSE 2 7 1 4 1009.4 1006.1 0.0
29/01:30am 22.2 21.4 6.4 36 8.2 CALM 0 4 0 2 1009.2 1005.9 0.0
29/01:00am 23.4 21.8 6.2 33 9.0 ESE 4 7 2 4 1009.5 1006.2 0.0
29/12:30am 23.5 21.9 6.3 33 9.0 ENE 4 6 2 3 1009.5 1006.2 0.0
29/12:00am 24.6 22.6 6.4 31 9.6 N 6 7 3 4 1009.7 1006.4 0.0
 
Date/Time
WST
Temp
°C
App
Temp
°C
Dew
Point
°C
Rel
Hum
%
Delta-T
°C
Wind Press
QNH
hPa
Press
MSL
hPa
Rain since
9am
mm
Dir  Spd
km/h
Gust
km/h
Spd
kts
Gust
kts
28/11:30pm 24.4 23.4 5.7 30 9.7 CALM 0 0 0 0 1010.2 1006.8 0.0
28/11:00pm 25.9 23.8 6.0 28 10.5 NE 6 9 3 5 1010.6 1007.2 0.0
28/10:30pm 25.9 23.7 5.5 27 10.7 ESE 6 7 3 4 1010.8 1007.4 0.0
28/10:00pm 25.8 24.8 5.4 27 10.6 CALM 0 0 0 0 1010.9 1007.5 0.0
28/09:30pm 26.9 25.7 4.6 24 11.5 CALM 0 4 0 2 1011.0 1007.6 0.0
28/09:00pm 28.5 26.0 4.7 22 12.5 E 7 9 4 5 1010.8 1007.4 0.0
28/08:30pm 28.4 26.1 4.6 22 12.4 E 6 7 3 4 1010.5 1007.1 0.0
28/08:00pm 31.2 28.6 4.1 18 14.3 E 7 9 4 5 1010.3 1006.9 0.0
28/07:30pm 31.8 29.1 3.8 17 14.7 SE 7 9 4 5 1010.0 1006.6 0.0
28/07:00pm 33.1 30.3 3.0 15 15.7 SSE 7 9 4 5 1009.4 1006.1 0.0
28/06:30pm 34.4 30.6 2.0 13 16.8 SSE 11 15 6 8 1009.1 1005.7 0.0
28/06:00pm 35.0 30.2 2.5 13 17.0 SSE 17 22 9 12 1008.9 1005.5 0.0
28/05:30pm 35.9 31.6 3.2 13 17.4 SSE 15 20 8 11 1008.6 1005.2 0.0
28/05:00pm 36.7 33.6 0.1 10 18.7 S 6 9 3 5 1008.3 1004.9 0.0
28/04:30pm 36.9 32.9 0.3 10 18.7 ESE 11 19 6 10 1008.3 1004.9 0.0
28/04:00pm 37.3 32.6 0.6 10 18.9 SSE 15 24 8 13 1008.3 1004.9 0.0
28/03:30pm 37.7 32.8 -0.6 9 19.4 S 15 26 8 14 1008.2 1004.8 0.0
28/03:00pm 37.8 32.4 1.0 10 19.2 SSE 19 32 10 17 1008.3 1004.9 0.0
28/02:30pm 37.6 33.3 0.8 10 19.0 ESE 13 24 7 13 1008.5 1005.1 0.0
28/02:00pm 37.7 33.0 0.9 10 19.1 SE 15 32 8 17 1008.9 1005.5 0.0
28/01:30pm 37.5 33.6 3.3 12 18.4 ESE 13 26 7 14 1009.1 1005.7 0.0
28/01:00pm 37.6 33.9 4.5 13 18.2 S 13 24 7 13 1009.4 1006.1 0.0
28/12:30pm 36.8 33.2 4.9 14 17.5 S 13 22 7 12 1010.0 1006.6 0.0
28/12:00pm 36.6 32.4 5.8 15 17.1 SE 17 28 9 15 1010.8 1007.4 0.0
28/11:30am 35.5 31.5 4.9 15 16.7 S 15 30 8 16 1011.3 1007.9 0.0
28/11:00am 35.9 32.2 6.2 16 16.6 ESE 15 20 8 11 1011.7 1008.4 0.0
28/10:30am 34.9 31.6 7.9 19 15.4 NNE 15 28 8 15 1012.2 1008.9 0.0
28/10:00am 34.3 30.5 7.4 19 15.2 E 17 24 9 13 1012.8 1009.4 0.0
28/09:30am 33.9 29.8 7.8 20 14.8 ESE 19 28 10 15 1013.1 1009.7 0.0
28/09:00am 34.5 30.9 9.7 22 14.5 ENE 19 28 10 15 1013.4 1010.0 0.0
28/08:30am 34.1 30.9 10.0 23 14.1 ENE 17 28 9 15 1013.6 1010.2 0.0
28/08:00am 32.5 28.9 9.9 25 13.1 ENE 19 26 10 14 1013.6 1010.2 0.0
28/07:30am 31.4 28.3 10.2 27 12.3 NE 17 24 9 13 1013.6 1010.2 0.0
28/07:00am 30.5 27.8 10.5 29 11.6 NE 15 24 8 13 1013.6 1010.2 0.0
28/06:30am 29.4 27.5 10.5 31 10.9 ENE 11 17 6 9 1013.3 1009.9 0.0
28/06:00am 28.3 26.9 10.9 34 10.1 NE 9 15 5 8 1013.2 1009.8 0.0
28/05:30am 26.6 27.0 11.1 38 8.9 CALM 0 0 0 0 1012.9 1009.5 0.0
28/05:00am 23.1 23.4 10.9 46 6.9 CALM 0 0 0 0 1012.3 1009.0 0.0
28/04:30am 23.4 23.6 10.5 44 7.3 CALM 0 6 0 3 1011.9 1008.6 0.0
28/04:00am 24.2 23.3 10.5 42 7.7 E 6 13 3 7 1011.3 1007.9 0.0
28/03:30am 23.4 23.5 10.1 43 7.4 CALM 0 0 0 0 1011.3 1007.9 0.0
28/03:00am 23.7 23.7 9.7 41 7.8 CALM 0 0 0 0 1011.1 1007.7 0.0
28/02:30am 25.0 24.1 9.3 37 8.7 NNE 4 7 2 4 1010.8 1007.4 0.0
28/02:00am 26.4 25.2 9.7 35 9.4 NE 6 9 3 5 1010.7 1007.3 0.0
28/01:30am 26.9 25.2 9.7 34 9.7 ESE 9 9 5 5 1010.6 1007.2 0.0
28/01:00am 27.4 25.6 9.3 32 10.2 ESE 9 11 5 6 1010.5 1007.1 0.0
28/12:30am 27.0 25.2 9.4 33 9.9 SE 9 11 5 6 1010.6 1007.2 0.0
28/12:00am 27.9 25.7 9.2 31 10.5 NNE 11 15 6 8 1010.9 1007.5 0.0
 
Date/Time
WST
Temp
°C
App
Temp
°C
Dew
Point
°C
Rel
Hum
%
Delta-T
°C
Wind Press
QNH
hPa
Press
MSL
hPa
Rain since
9am
mm
Dir  Spd
km/h
Gust
km/h
Spd
kts
Gust
kts
27/11:30pm 27.3 25.9 8.7 31 10.3 SE 6 9 3 5 1010.5 1007.1 0.0
27/11:00pm 28.6 26.6 8.8 29 11.1 SE 9 11 5 6 1010.6 1007.2 0.0
27/10:30pm 29.3 26.8 8.4 27 11.7 ESE 11 13 6 7 1010.9 1007.5 0.0
27/10:00pm 30.0 26.8 8.4 26 12.1 ESE 15 17 8 9 1011.1 1007.7 0.0
27/09:30pm 30.0 27.5 8.4 26 12.1 ESE 11 15 6 8 1011.3 1007.9 0.0
27/09:00pm 30.4 27.9 8.2 25 12.4 E 11 17 6 9 1011.2 1007.8 0.0
27/08:30pm 30.9 28.0 8.0 24 12.8 E 13 15 7 8 1011.0 1007.6 0.0
27/08:00pm 31.1 28.8 7.5 23 13.1 E 9 13 5 7 1010.7 1007.3 0.0
27/07:30pm 32.1 28.9 7.0 21 13.9 E 13 15 7 8 1010.4 1007.0 0.0
27/07:00pm 33.0 29.1 7.1 20 14.5 E 17 20 9 11 1010.1 1006.7 0.0
27/06:30pm 33.1 29.8 6.4 19 14.7 E 13 17 7 9 1009.6 1006.3 0.0
27/06:00pm 34.1 30.0 6.4 18 15.4 E 17 22 9 12 1009.3 1006.0 0.0
27/05:30pm 35.1 30.7 6.4 17 16.0 E 19 24 10 13 1008.9 1005.5 0.0
27/05:00pm 36.1 31.3 5.4 15 16.9 ESE 20 26 11 14 1008.5 1005.1 0.0
27/04:30pm 36.7 33.3 5.9 15 17.2 ESE 13 20 7 11 1008.3 1004.9 0.0
27/04:00pm 35.9 31.8 6.2 16 16.6 E 17 24 9 13 1008.1 1004.7 0.0
27/03:30pm 35.9 32.6 6.2 16 16.6 SE 13 28 7 15 1008.1 1004.7 0.0
27/03:00pm 37.0 32.3 6.1 15 17.3 ESE 20 32 11 17 1008.3 1004.9 0.0
27/02:30pm 37.1 34.7 7.1 16 17.0 SE 9 19 5 10 1008.3 1004.9 0.0
27/02:00pm 37.1 32.2 7.1 16 17.1 S 22 37 12 20 1008.7 1005.3 0.0
27/01:30pm 37.4 33.4 8.2 17 16.9 ESE 19 32 10 17 1009.0 1005.6 0.0
27/01:00pm 36.9 33.2 7.8 17 16.7 ESE 17 24 9 13 1009.4 1006.1 0.0
27/12:30pm 35.9 32.2 7.9 18 16.0 E 17 24 9 13 1010.1 1006.7 0.0
27/12:00pm 36.1 31.8 8.0 18 16.1 ESE 20 28 11 15 1010.4 1007.0 0.0
27/11:30am 35.8 33.0 8.6 19 15.7 SE 13 28 7 15 1010.9 1007.5 0.0
27/11:00am 35.7 32.3 9.3 20 15.4 ESE 17 33 9 18 1011.4 1008.0 0.0
27/10:30am 34.5 30.7 9.7 22 14.5 E 20 35 11 19 1011.9 1008.6 0.0
27/10:00am 34.4 30.7 9.6 22 14.5 ESE 19 33 10 18 1012.3 1009.0 0.0
27/09:30am 34.2 29.3 10.1 23 14.1 ENE 26 35 14 19 1013.0 1009.6 0.0
27/09:00am 33.4 28.9 10.1 24 13.6 ENE 24 37 13 20 1013.2 1009.8 0.0
27/08:30am 33.2 27.1 9.9 24 13.6 E 32 39 17 21 1013.4 1010.0 0.0
27/08:00am 32.7 27.8 10.1 25 13.2 ENE 26 33 14 18 1013.4 1010.0 0.0
27/07:30am 31.6 26.4 10.3 27 12.4 E 28 37 15 20 1013.4 1010.0 0.0
27/07:00am 30.6 27.0 10.5 29 11.7 E 20 28 11 15 1013.4 1010.0 0.0
27/06:30am 29.7 26.7 10.8 31 11.0 E 17 22 9 12 1013.4 1010.0 0.0
27/06:00am 28.1 26.9 10.3 33 10.2 E 7 11 4 6 1013.0 1009.6 0.0
27/05:30am 25.8 24.8 10.4 38 8.7 E 6 7 3 4 1012.6 1009.2 0.0
27/05:00am 22.4 22.4 9.9 45 6.9 CALM 0 0 0 0 1011.9 1008.6 0.0
27/04:30am 22.9 22.8 9.3 42 7.5 CALM 0 2 0 1 1011.6 1008.3 0.0
27/04:00am 24.9 23.4 9.2 37 8.7 ENE 7 9 4 5 1011.4 1008.0 0.0
27/03:30am 26.1 23.9 9.5 35 9.3 ENE 11 13 6 7 1011.3 1007.9 0.0
27/03:00am 26.7 24.1 9.5 34 9.7 ENE 13 17 7 9 1011.0 1007.6 0.0
27/02:30am 25.2 23.2 8.7 35 9.1 E 9 9 5 5 1010.6 1007.2 0.0
27/02:00am 25.6 23.8 8.1 33 9.6 E 7 9 4 5 1010.4 1007.0 0.0
27/01:30am 26.6 24.5 8.1 31 10.1 E 9 13 5 7 1010.3 1006.9 0.0
27/01:00am 27.8 24.9 8.1 29 10.9 ESE 13 19 7 10 1010.0 1006.6 0.0
27/12:30am 28.3 24.8 7.0 26 11.6 ESE 15 24 8 13 1010.1 1006.7 0.0
27/12:00am 28.9 24.4 6.9 25 12.0 ESE 20 28 11 15 1010.2 1006.8 0.0
 
Date/Time
WST
Temp
°C
App
Temp
°C
Dew
Point
°C
Rel
Hum
%
Delta-T
°C
Wind Press
QNH
hPa
Press
MSL
hPa
Rain since
9am
mm
Dir  Spd
km/h
Gust
km/h
Spd
kts
Gust
kts
26/11:30pm 28.3 24.9 5.8 24 12.0 ESE 13 19 7 10 1010.5 1007.1 0.0
26/11:00pm 28.1 25.4 5.6 24 11.9 ESE 9 13 5 7 1010.7 1007.3 0.0

Other formats

Comma delimited format used in spreadsheet applications
http://www.bom.gov.au/fwo/IDW60801/IDW60801.94212.axf

JavaScript Object Notation format (JSON) in row-major order
http://www.bom.gov.au/fwo/IDW60801/IDW60801.94212.json

Data quality

Most of these data are generated automatically and are frequently updated. Quality checks on data are not normally performed. It is possible for incorrect values to appear. Refer to information at About Latest Weather Observations and please check the disclaimer before using these data.